createdAt,value
2022-07-26T00:01:52.674Z,91.06
2022-07-26T00:04:20.126Z,92.58
2022-07-26T00:06:47.354Z,86.86
2022-07-26T00:09:14.822Z,79.28
2022-07-26T00:11:42.229Z,88.21
2022-07-26T00:14:10.068Z,93.03
2022-07-26T00:16:38.873Z,94.59
2022-07-26T00:19:08.109Z,96.36
2022-07-26T00:21:37.535Z,97.46
2022-07-26T00:24:08.698Z,84.54
2022-07-26T00:26:36.032Z,87.37
2022-07-26T00:29:05.264Z,94.17
2022-07-26T00:31:33.056Z,98.48
2022-07-26T00:34:01.157Z,100.00
2022-07-26T00:36:29.175Z,100.00
2022-07-26T00:38:56.651Z,100.00
2022-07-26T00:41:23.963Z,92.93
2022-07-26T00:43:59.881Z,97.98
2022-07-26T00:46:27.673Z,100.00
2022-07-26T00:48:55.377Z,100.00
2022-07-26T00:51:23.237Z,100.00
2022-07-26T00:53:50.928Z,100.00
2022-07-26T00:56:18.757Z,100.00
2022-07-26T00:58:48.225Z,95.62
2022-07-26T01:01:15.716Z,100.00
2022-07-26T01:03:43.559Z,100.00
2022-07-26T01:06:11.161Z,100.00
2022-07-26T01:08:38.698Z,100.00
2022-07-26T01:11:06.288Z,100.00
2022-07-26T01:13:35.410Z,100.00
2022-07-26T01:16:04.443Z,96.51
2022-07-26T01:18:31.706Z,99.61
2022-07-26T01:21:13.889Z,100.00
2022-07-26T01:23:44.209Z,100.00
2022-07-26T01:26:12.008Z,100.00
2022-07-26T01:28:40.970Z,100.00
2022-07-26T01:31:08.707Z,100.00
2022-07-26T01:33:36.195Z,100.00
2022-07-26T01:36:03.549Z,94.83
2022-07-26T01:38:32.230Z,100.00
2022-07-26T01:40:59.628Z,100.00
2022-07-26T01:43:27.158Z,100.00
2022-07-26T01:45:55.727Z,100.00
2022-07-26T01:48:23.345Z,100.00
2022-07-26T01:50:50.712Z,94.68
2022-07-26T01:53:18.219Z,82.63
2022-07-26T01:55:45.445Z,89.32
2022-07-26T01:58:13.013Z,92.10
2022-07-26T02:00:40.256Z,92.83
2022-07-26T02:03:07.774Z,95.73
2022-07-26T02:05:35.317Z,97.50
2022-07-26T02:08:03.389Z,88.49
2022-07-26T02:10:49.582Z,86.99
2022-07-26T02:13:17.550Z,99.69
2022-07-26T02:15:45.033Z,100.00
2022-07-26T02:18:13.025Z,100.00
2022-07-26T02:20:40.369Z,100.00
2022-07-26T02:23:07.733Z,100.00
2022-07-26T02:25:35.024Z,100.00
2022-07-26T02:28:02.536Z,100.00
2022-07-26T02:30:32.100Z,100.00
2022-07-26T02:33:01.112Z,100.00
2022-07-26T02:35:28.409Z,100.00
2022-07-26T02:37:55.873Z,100.00
2022-07-26T02:40:23.209Z,100.00
2022-07-26T02:42:50.517Z,100.00
2022-07-26T02:45:20.966Z,100.00
2022-07-26T02:47:50.530Z,100.00
2022-07-26T02:50:19.320Z,100.00
2022-07-26T02:52:50.108Z,100.00
2022-07-26T02:55:19.917Z,100.00
2022-07-26T02:57:47.839Z,100.00
2022-07-26T03:00:17.710Z,100.00
2022-07-26T03:02:45.375Z,100.00
2022-07-26T03:05:12.869Z,100.00
2022-07-26T03:07:40.271Z,100.00
2022-07-26T03:10:08.371Z,100.00
2022-07-26T03:12:35.909Z,100.00
2022-07-26T03:15:03.981Z,100.00
2022-07-26T03:17:31.240Z,100.00
2022-07-26T03:19:59.670Z,100.00
2022-07-26T03:22:27.010Z,100.00
2022-07-26T03:24:54.386Z,100.00
2022-07-26T03:27:21.653Z,100.00
2022-07-26T03:29:49.010Z,100.00
2022-07-26T03:32:16.277Z,100.00
2022-07-26T03:34:43.808Z,100.00
2022-07-26T03:37:11.089Z,100.00
2022-07-26T03:39:38.752Z,100.00
2022-07-26T03:42:06.061Z,100.00
2022-07-26T03:44:33.472Z,100.00
2022-07-26T03:47:00.757Z,100.00
2022-07-26T03:49:28.802Z,100.00
2022-07-26T03:51:56.211Z,100.00
2022-07-26T03:54:23.882Z,100.00
2022-07-26T03:56:51.430Z,100.00
2022-07-26T03:59:21.773Z,100.00
2022-07-26T04:01:49.243Z,100.00
2022-07-26T04:04:25.150Z,100.00
2022-07-26T04:06:52.855Z,100.00
2022-07-26T04:09:20.687Z,100.00
2022-07-26T04:11:49.549Z,100.00
2022-07-26T04:14:16.765Z,100.00
2022-07-26T04:16:44.275Z,100.00
2022-07-26T04:19:11.973Z,100.00
2022-07-26T04:21:39.279Z,100.00
2022-07-26T04:24:07.559Z,100.00
2022-07-26T04:26:35.259Z,100.00
2022-07-26T04:29:02.535Z,100.00
2022-07-26T04:31:36.288Z,100.00
2022-07-26T04:34:04.111Z,100.00
2022-07-26T04:36:32.065Z,100.00
2022-07-26T04:38:59.403Z,100.00
2022-07-26T04:41:26.725Z,100.00
2022-07-26T04:43:53.976Z,100.00
2022-07-26T04:46:21.197Z,100.00
2022-07-26T04:48:49.096Z,100.00
2022-07-26T04:51:16.355Z,100.00
2022-07-26T04:53:43.679Z,100.00
2022-07-26T04:56:11.964Z,100.00
2022-07-26T04:58:39.557Z,100.00
2022-07-26T05:01:10.953Z,100.00
2022-07-26T05:03:39.986Z,100.00
2022-07-26T05:06:08.639Z,100.00
2022-07-26T05:08:36.082Z,100.00
2022-07-26T05:11:04.476Z,100.00
2022-07-26T05:13:31.903Z,100.00
2022-07-26T05:16:01.670Z,100.00
2022-07-26T05:18:31.782Z,100.00
2022-07-26T05:21:13.582Z,100.00
2022-07-26T05:23:41.073Z,100.00
2022-07-26T05:26:08.398Z,100.00
2022-07-26T05:28:36.023Z,100.00
2022-07-26T05:31:03.505Z,100.00
2022-07-26T05:33:30.831Z,100.00
2022-07-26T05:35:58.452Z,100.00
2022-07-26T05:38:26.189Z,100.00
2022-07-26T05:40:53.693Z,100.00
2022-07-26T05:43:20.922Z,100.00
2022-07-26T05:45:48.544Z,100.00
2022-07-26T05:48:16.163Z,100.00
2022-07-26T05:50:43.796Z,100.00
2022-07-26T05:53:11.058Z,100.00
2022-07-26T05:55:38.581Z,100.00
2022-07-26T05:58:05.863Z,100.00
2022-07-26T06:00:33.772Z,100.00
2022-07-26T06:03:21.568Z,100.00
2022-07-26T06:05:55.014Z,100.00
2022-07-26T06:08:23.289Z,95.79
2022-07-26T06:10:51.103Z,90.95
2022-07-26T06:13:18.734Z,89.63
2022-07-26T06:15:46.734Z,87.30
2022-07-26T06:18:15.072Z,84.96
2022-07-26T06:20:44.580Z,83.19
2022-07-26T06:23:12.817Z,82.14
2022-07-26T06:25:40.758Z,79.55
2022-07-26T06:28:10.933Z,76.19
2022-07-26T06:30:39.036Z,74.84
2022-07-26T06:33:07.973Z,73.50
2022-07-26T06:35:36.407Z,72.59
2022-07-26T06:38:03.812Z,71.39
2022-07-26T06:40:31.473Z,70.70
2022-07-26T06:43:03.986Z,68.31
2022-07-26T06:45:33.474Z,67.17
2022-07-26T06:48:01.146Z,67.04
2022-07-26T06:50:28.580Z,66.01
2022-07-26T06:52:56.139Z,64.92
2022-07-26T06:55:23.765Z,66.19
2022-07-26T06:57:51.113Z,64.56
2022-07-26T07:00:20.794Z,64.58
2022-07-26T07:02:49.062Z,63.63
2022-07-26T07:05:16.573Z,63.17
2022-07-26T07:07:43.973Z,62.20
2022-07-26T07:10:12.726Z,60.69
2022-07-26T07:12:41.797Z,59.50
2022-07-26T07:15:09.411Z,56.90
2022-07-26T07:17:37.284Z,56.70
2022-07-26T07:20:06.044Z,56.75
2022-07-26T07:22:36.489Z,54.59
2022-07-26T07:25:06.007Z,54.32
2022-07-26T07:27:33.728Z,53.66
2022-07-26T07:30:01.120Z,52.54
2022-07-26T07:32:28.852Z,52.45
2022-07-26T07:34:57.262Z,51.80
2022-07-26T07:37:24.603Z,52.54
2022-07-26T07:39:52.075Z,53.72
2022-07-26T07:42:21.304Z,54.26
2022-07-26T07:44:50.360Z,53.14
2022-07-26T07:47:17.799Z,53.62
2022-07-26T07:49:45.527Z,53.06
2022-07-26T07:52:12.872Z,50.77
2022-07-26T07:54:40.401Z,50.58
2022-07-26T07:57:09.743Z,49.67
2022-07-26T07:59:39.208Z,48.82
2022-07-26T08:02:07.424Z,47.94
2022-07-26T08:04:36.147Z,47.63
2022-07-26T08:07:03.686Z,49.10
2022-07-26T08:09:30.956Z,47.03
2022-07-26T08:12:01.768Z,47.63
2022-07-26T08:14:29.773Z,47.01
2022-07-26T08:16:57.417Z,46.48
2022-07-26T08:19:28.754Z,46.36
2022-07-26T08:22:09.998Z,45.21
2022-07-26T08:24:37.535Z,45.37
2022-07-26T08:27:05.094Z,45.46
2022-07-26T08:29:32.696Z,45.99
2022-07-26T08:32:00.636Z,45.12
2022-07-26T08:34:28.577Z,44.97
2022-07-26T08:37:15.855Z,45.46
2022-07-26T08:39:44.023Z,45.56
2022-07-26T08:42:22.866Z,45.90
2022-07-26T08:44:51.241Z,45.31
2022-07-26T08:47:35.182Z,44.92
2022-07-26T08:50:11.016Z,44.59
2022-07-26T08:52:41.953Z,45.06
2022-07-26T08:55:10.371Z,46.70
2022-07-26T08:57:37.940Z,48.49
2022-07-26T09:00:31.920Z,45.25
2022-07-26T09:03:01.874Z,44.04
2022-07-26T09:05:33.879Z,42.96
2022-07-26T09:08:22.694Z,43.18
2022-07-26T09:10:50.285Z,43.32
2022-07-26T09:13:17.994Z,44.46
2022-07-26T09:15:45.487Z,43.46
2022-07-26T09:18:28.796Z,42.68
2022-07-26T09:20:56.182Z,42.27
2022-07-26T09:23:23.470Z,42.68
2022-07-26T09:26:04.362Z,42.08
2022-07-26T09:28:32.904Z,41.53
2022-07-26T09:31:03.978Z,42.36
2022-07-26T09:33:51.984Z,42.55
2022-07-26T09:36:19.966Z,42.40
2022-07-26T09:38:49.536Z,42.13
2022-07-26T09:41:24.195Z,42.46
2022-07-26T09:43:54.204Z,41.86
2022-07-26T09:46:23.897Z,41.83
2022-07-26T09:49:11.039Z,42.62
2022-07-26T09:51:47.935Z,42.31
2022-07-26T09:54:35.899Z,42.30
2022-07-26T09:57:04.502Z,42.81
2022-07-26T09:59:31.967Z,42.58
2022-07-26T10:02:01.409Z,42.81
2022-07-26T10:04:29.556Z,42.30
2022-07-26T10:06:58.573Z,42.58
2022-07-26T10:09:30.989Z,42.08
2022-07-26T10:12:06.001Z,41.63
2022-07-26T10:14:33.562Z,42.14
2022-07-26T10:17:02.611Z,41.80
2022-07-26T10:19:48.570Z,41.51
2022-07-26T10:22:32.392Z,41.71
2022-07-26T10:25:26.935Z,41.87
2022-07-26T10:27:58.584Z,41.59
2022-07-26T10:30:34.225Z,42.28
2022-07-26T10:33:15.252Z,42.88
2022-07-26T10:35:43.837Z,42.05
2022-07-26T10:38:22.894Z,41.01
2022-07-26T10:41:00.734Z,41.63
2022-07-26T10:43:41.102Z,41.51
2022-07-26T10:46:15.502Z,41.09
2022-07-26T10:49:07.178Z,40.86
2022-07-26T10:51:38.017Z,40.67
2022-07-26T10:54:14.193Z,40.51
2022-07-26T10:56:42.053Z,40.66
2022-07-26T10:59:09.698Z,40.80
2022-07-26T11:01:43.289Z,40.66
2022-07-26T11:04:25.693Z,40.20
2022-07-26T11:06:53.985Z,40.20
2022-07-26T11:09:21.529Z,40.34
2022-07-26T11:11:49.643Z,40.69
2022-07-26T11:14:18.272Z,39.83
2022-07-26T11:16:48.262Z,39.59
2022-07-26T11:19:17.964Z,39.83
2022-07-26T11:21:47.411Z,39.88
2022-07-26T11:24:15.278Z,39.65
2022-07-26T11:26:47.174Z,39.58
2022-07-26T11:29:17.705Z,38.91
2022-07-26T11:31:59.944Z,39.53
2022-07-26T11:34:34.047Z,39.25
2022-07-26T11:37:04.655Z,38.63
2022-07-26T11:39:36.310Z,38.57
2022-07-26T11:42:09.509Z,39.11
2022-07-26T11:44:37.662Z,39.40
2022-07-26T11:47:20.649Z,38.74
2022-07-26T11:50:11.675Z,38.12
2022-07-26T11:52:39.617Z,40.01
2022-07-26T11:55:07.671Z,41.13
2022-07-26T11:57:35.412Z,41.51
2022-07-26T12:00:05.913Z,41.28
2022-07-26T12:02:39.424Z,40.46
2022-07-26T12:05:23.744Z,42.53
2022-07-26T12:07:57.735Z,43.83
2022-07-26T12:10:25.803Z,44.27
2022-07-26T12:13:15.766Z,44.51
2022-07-26T12:15:56.325Z,45.70
2022-07-26T12:18:29.024Z,46.49
2022-07-26T12:21:06.002Z,46.91
2022-07-26T12:23:45.544Z,46.55
2022-07-26T12:26:24.104Z,47.42
2022-07-26T12:28:51.951Z,47.20
2022-07-26T12:31:27.451Z,47.22
2022-07-26T12:33:55.632Z,46.48
2022-07-26T12:36:26.997Z,43.39
2022-07-26T12:38:56.925Z,42.61
2022-07-26T12:41:38.887Z,43.84
2022-07-26T12:44:07.925Z,43.71
2022-07-26T12:46:36.776Z,41.57
2022-07-26T12:49:05.544Z,42.05
2022-07-26T12:51:33.903Z,42.68
2022-07-26T12:54:01.494Z,41.84
2022-07-26T12:56:28.833Z,42.45
2022-07-26T12:59:01.666Z,43.10
2022-07-26T13:01:31.829Z,42.09
2022-07-26T13:04:00.259Z,41.91
2022-07-26T13:06:27.998Z,39.69
2022-07-26T13:08:56.862Z,40.10
2022-07-26T13:11:25.260Z,39.02
2022-07-26T13:13:53.123Z,38.25
2022-07-26T13:16:20.605Z,37.42
2022-07-26T13:18:48.522Z,37.06
2022-07-26T13:21:16.288Z,38.74
2022-07-26T13:23:46.462Z,38.06
2022-07-26T13:26:14.072Z,37.72
2022-07-26T13:28:43.591Z,37.45
2022-07-26T13:31:13.073Z,37.37
2022-07-26T13:33:41.086Z,38.27
2022-07-26T13:36:09.088Z,39.05
2022-07-26T13:38:36.818Z,38.60
2022-07-26T13:41:04.748Z,38.37
2022-07-26T13:43:32.841Z,37.59
2022-07-26T13:46:00.619Z,36.40
2022-07-26T13:48:29.360Z,35.57
2022-07-26T13:51:00.127Z,35.68
2022-07-26T13:53:30.615Z,34.99
2022-07-26T13:55:58.332Z,35.11
2022-07-26T13:58:25.925Z,34.23
2022-07-26T14:00:53.546Z,33.88
2022-07-26T14:03:21.502Z,33.91
2022-07-26T14:05:49.014Z,33.40
2022-07-26T14:08:16.584Z,32.77
2022-07-26T14:10:44.404Z,32.76
2022-07-26T14:13:17.630Z,32.98
2022-07-26T14:15:44.976Z,33.81
2022-07-26T14:18:13.307Z,33.02
2022-07-26T14:20:43.553Z,33.47
2022-07-26T14:23:11.148Z,33.36
2022-07-26T14:25:38.757Z,33.45
2022-07-26T14:28:06.599Z,34.12
2022-07-26T14:30:34.236Z,34.55
2022-07-26T14:33:02.246Z,33.03
2022-07-26T14:35:29.881Z,32.04
2022-07-26T14:37:57.392Z,33.04
2022-07-26T14:40:25.157Z,32.91
2022-07-26T14:42:52.717Z,32.56
2022-07-26T14:45:20.302Z,34.25
2022-07-26T14:47:48.265Z,35.54
2022-07-26T14:50:15.977Z,35.95
2022-07-26T14:52:47.386Z,35.40
2022-07-26T14:55:17.394Z,34.62
2022-07-26T14:57:46.947Z,34.61
2022-07-26T15:00:18.819Z,34.47
2022-07-26T15:02:49.199Z,34.11
2022-07-26T15:05:17.720Z,33.50
2022-07-26T15:07:45.936Z,33.83
2022-07-26T15:10:16.291Z,32.82
2022-07-26T15:12:44.634Z,32.86
2022-07-26T15:15:12.528Z,33.61
2022-07-26T15:17:40.431Z,33.01
2022-07-26T15:20:08.675Z,33.22
2022-07-26T15:22:36.351Z,33.13
2022-07-26T15:25:04.420Z,33.75
2022-07-26T15:27:32.071Z,33.65
2022-07-26T15:30:04.326Z,33.51
2022-07-26T15:32:34.310Z,35.05
2022-07-26T15:35:02.567Z,35.50
2022-07-26T15:37:31.206Z,33.27
2022-07-26T15:40:00.970Z,34.18
2022-07-26T15:42:31.699Z,35.83
2022-07-26T15:44:59.679Z,33.76
2022-07-26T15:47:53.055Z,32.80
2022-07-26T15:50:21.416Z,32.24
2022-07-26T15:52:49.686Z,32.34
2022-07-26T15:55:21.379Z,32.25
2022-07-26T15:57:49.099Z,32.32
2022-07-26T16:00:18.624Z,32.37
2022-07-26T16:02:47.037Z,32.41
2022-07-26T16:05:15.006Z,32.19
2022-07-26T16:07:45.000Z,31.97
2022-07-26T16:10:14.626Z,31.78
2022-07-26T16:12:42.871Z,33.50
2022-07-26T16:15:12.234Z,34.52
2022-07-26T16:17:40.580Z,34.45
2022-07-26T16:20:08.943Z,32.13
2022-07-26T16:22:41.431Z,33.74
2022-07-26T16:25:09.840Z,33.76
2022-07-26T16:27:37.462Z,32.50
2022-07-26T16:30:06.017Z,34.97
2022-07-26T16:32:33.904Z,33.69
2022-07-26T16:35:01.696Z,32.41
2022-07-26T16:37:29.168Z,34.99
2022-07-26T16:39:56.805Z,33.25
2022-07-26T16:42:24.396Z,32.80
2022-07-26T16:44:51.980Z,34.13
2022-07-26T16:47:19.614Z,32.17
2022-07-26T16:49:47.703Z,34.08
2022-07-26T16:52:16.007Z,32.85
2022-07-26T16:54:43.896Z,31.81
2022-07-26T16:57:11.991Z,33.20
2022-07-26T16:59:39.767Z,34.40
2022-07-26T17:02:09.339Z,32.69
2022-07-26T17:04:37.804Z,34.13
2022-07-26T17:07:24.502Z,34.16
2022-07-26T17:09:53.489Z,32.83
2022-07-26T17:12:21.465Z,34.39
2022-07-26T17:14:49.722Z,35.63
2022-07-26T17:17:17.486Z,33.60
2022-07-26T17:19:45.429Z,35.41
2022-07-26T17:22:14.425Z,35.12
2022-07-26T17:24:42.208Z,33.73
2022-07-26T17:27:09.940Z,33.54
2022-07-26T17:29:37.539Z,34.10
2022-07-26T17:32:06.226Z,36.13
2022-07-26T17:34:35.374Z,37.00
2022-07-26T17:37:08.274Z,36.16
2022-07-26T17:39:52.811Z,35.28
2022-07-26T17:42:21.547Z,36.86
2022-07-26T17:44:51.599Z,34.90
2022-07-26T17:47:28.857Z,34.58
2022-07-26T17:50:34.126Z,35.84
2022-07-26T17:52:51.116Z,37.73
2022-07-26T17:55:19.372Z,38.26
2022-07-26T17:57:48.497Z,35.74
2022-07-26T18:00:21.721Z,37.70
2022-07-26T18:02:49.705Z,38.59
2022-07-26T18:05:18.583Z,38.45
2022-07-26T18:07:46.149Z,36.96
2022-07-26T18:10:14.803Z,38.71
2022-07-26T18:12:42.851Z,39.35
2022-07-26T18:15:10.804Z,37.07
2022-07-26T18:17:39.130Z,38.70
2022-07-26T18:20:07.757Z,38.95
2022-07-26T18:22:39.169Z,37.08
2022-07-26T18:25:08.822Z,38.90
2022-07-26T18:27:37.017Z,40.55
2022-07-26T18:30:05.293Z,40.74
2022-07-26T18:32:34.547Z,37.82
2022-07-26T18:35:02.352Z,40.23
2022-07-26T18:37:30.115Z,40.84
2022-07-26T18:39:59.982Z,41.73
2022-07-26T18:42:27.533Z,38.48
2022-07-26T18:44:55.073Z,39.92
2022-07-26T18:47:22.878Z,41.25
2022-07-26T18:49:50.749Z,41.97
2022-07-26T18:52:28.873Z,39.38
2022-07-26T18:55:07.362Z,40.25
2022-07-26T18:57:38.291Z,41.78
2022-07-26T19:00:17.292Z,42.97
2022-07-26T19:02:45.920Z,40.80
2022-07-26T19:05:15.250Z,43.27
2022-07-26T19:07:43.254Z,44.03
2022-07-26T19:10:12.131Z,44.97
2022-07-26T19:12:40.107Z,43.75
2022-07-26T19:15:09.126Z,43.16
2022-07-26T19:17:39.846Z,44.67
2022-07-26T19:20:09.076Z,45.49
2022-07-26T19:22:37.696Z,47.30
2022-07-26T19:25:09.367Z,47.18
2022-07-26T19:27:38.142Z,50.03
2022-07-26T19:30:08.076Z,54.18
2022-07-26T19:32:36.247Z,56.46
2022-07-26T19:35:05.037Z,59.47
2022-07-26T19:37:32.699Z,55.97
2022-07-26T19:40:01.455Z,62.51
2022-07-26T19:42:32.784Z,65.41
2022-07-26T19:45:00.796Z,67.69
2022-07-26T19:47:30.111Z,70.01
2022-07-26T19:49:57.848Z,68.43
2022-07-26T19:52:25.913Z,66.03
2022-07-26T19:54:57.417Z,68.38
2022-07-26T19:57:24.996Z,71.94
2022-07-26T19:59:52.744Z,76.22
2022-07-26T20:02:20.742Z,76.58
2022-07-26T20:04:51.175Z,79.37
2022-07-26T20:07:19.953Z,76.25
2022-07-26T20:09:50.821Z,78.17
2022-07-26T20:12:22.286Z,82.00
2022-07-26T20:14:53.027Z,84.53
2022-07-26T20:17:20.654Z,86.62
2022-07-26T20:19:51.362Z,87.84
2022-07-26T20:22:19.055Z,88.95
2022-07-26T20:24:46.828Z,84.07
2022-07-26T20:27:14.449Z,86.62
2022-07-26T20:29:42.016Z,90.04
2022-07-26T20:32:09.764Z,90.37
2022-07-26T20:34:37.644Z,90.64
2022-07-26T20:37:05.264Z,91.22
2022-07-26T20:39:33.535Z,93.32
2022-07-26T20:42:02.307Z,94.29
2022-07-26T20:44:31.790Z,89.38
2022-07-26T20:47:01.005Z,91.27
2022-07-26T20:49:29.057Z,96.72
2022-07-26T20:51:57.194Z,100.00
2022-07-26T20:54:25.666Z,100.00
2022-07-26T20:56:53.261Z,100.00
2022-07-26T20:59:20.822Z,100.00
2022-07-26T21:01:48.545Z,100.00
2022-07-26T21:04:16.620Z,100.00
2022-07-26T21:06:44.591Z,100.00
2022-07-26T21:09:12.782Z,100.00
2022-07-26T21:11:40.649Z,100.00
2022-07-26T21:14:08.393Z,100.00
2022-07-26T21:16:37.453Z,100.00
2022-07-26T21:19:07.259Z,100.00
2022-07-26T21:21:36.750Z,100.00
2022-07-26T21:24:07.659Z,100.00
2022-07-26T21:26:35.048Z,100.00
2022-07-26T21:29:02.374Z,100.00
2022-07-26T21:31:29.893Z,100.00
2022-07-26T21:33:57.209Z,100.00
2022-07-26T21:36:24.610Z,100.00
2022-07-26T21:38:51.958Z,100.00
2022-07-26T21:41:19.377Z,100.00
2022-07-26T21:43:46.809Z,100.00
2022-07-26T21:46:15.529Z,100.00
2022-07-26T21:48:43.236Z,100.00
2022-07-26T21:51:10.777Z,100.00
2022-07-26T21:53:38.176Z,100.00
2022-07-26T21:56:06.011Z,100.00
2022-07-26T21:58:36.621Z,100.00
2022-07-26T22:01:08.564Z,100.00
2022-07-26T22:03:37.994Z,100.00
2022-07-26T22:06:06.585Z,100.00
2022-07-26T22:08:34.884Z,100.00
2022-07-26T22:11:02.726Z,100.00
2022-07-26T22:13:30.835Z,100.00
2022-07-26T22:15:58.594Z,100.00
2022-07-26T22:18:26.987Z,100.00
2022-07-26T22:20:54.881Z,100.00
2022-07-26T22:23:31.930Z,100.00
2022-07-26T22:26:02.291Z,100.00
2022-07-26T22:28:30.941Z,100.00
2022-07-26T22:30:59.301Z,100.00
2022-07-26T22:33:27.234Z,100.00
2022-07-26T22:35:55.010Z,100.00
2022-07-26T22:38:22.644Z,100.00
2022-07-26T22:40:50.563Z,100.00
2022-07-26T22:43:18.249Z,100.00
2022-07-26T22:45:46.210Z,100.00
2022-07-26T22:48:14.114Z,100.00
2022-07-26T22:50:41.657Z,100.00
2022-07-26T22:53:09.367Z,100.00
2022-07-26T22:55:36.935Z,100.00
2022-07-26T22:58:04.658Z,100.00
2022-07-26T23:00:32.247Z,100.00
2022-07-26T23:03:00.233Z,100.00
2022-07-26T23:05:45.136Z,100.00
2022-07-26T23:08:36.614Z,100.00
2022-07-26T23:11:01.457Z,100.00
2022-07-26T23:13:29.076Z,100.00
2022-07-26T23:16:00.369Z,100.00
2022-07-26T23:18:30.372Z,100.00
2022-07-26T23:20:58.530Z,100.00
2022-07-26T23:23:29.523Z,100.00
2022-07-26T23:25:59.489Z,100.00
2022-07-26T23:28:37.170Z,100.00
2022-07-26T23:31:11.793Z,100.00
2022-07-26T23:33:53.370Z,100.00
2022-07-26T23:36:27.556Z,100.00
2022-07-26T23:38:57.819Z,100.00
2022-07-26T23:41:26.002Z,100.00
2022-07-26T23:43:54.453Z,100.00
2022-07-26T23:46:22.437Z,100.00
2022-07-26T23:48:51.805Z,100.00
2022-07-26T23:51:20.087Z,100.00
2022-07-26T23:53:47.719Z,100.00
2022-07-26T23:56:15.833Z,100.00
2022-07-26T23:58:43.225Z,100.00
